Terminal Aerodrome Forecast
Issued by NWS Sterling, VA

Current Version | Previous Version | Text Only | Print | Product List | Glossary On
Versions: 1 2 3 4 5 6 7 8 9 10 11 12 13 14 15 16 17
000
FTUS41 KLWX 171700
TAFCHO
TAF
KCHO 171726Z 1718/1818 10007KT P6SM FEW050 FEW250
     FM180400 VRB03KT P6SM FEW050 SCT250
     FM180900 00000KT P6SM SCT050
     FM181000 VRB03KT P6SM BKN050=

USA.gov is the U.S. government's official web portal to all federal, state and local government web resources and services.